Time;durP1;ratioP1;P1;durP2;ratioP2;P2;SDS_P1;SDS_P2;PMS_P1;PMS_P2;Temp;Humidity;BMP_temperature;BMP_pressure;BME280_temperature;BME280_humidity;BME280_pressure;Samples;Min_cycle;Max_cycle;Signal;HPM_P1;HPM_P2
2023/12/12 00:02:04;;;;;;;1.10;0.95;;;5.80;54.30;;;;;;4946695;28;20031;-83
2023/12/12 00:04:30;;;;;;;1.45;1.02;;;5.80;54.00;;;;;;4933698;29;20051;-83
2023/12/12 00:06:56;;;;;;;3.08;1.23;;;5.80;54.30;;;;;;4949726;29;20035;-83
2023/12/12 00:09:22;;;;;;;1.63;1.10;;;5.80;53.80;;;;;;4947567;28;20031;-82
2023/12/12 00:11:49;;;;;;;1.90;1.10;;;5.80;53.70;;;;;;4949364;29;20039;-83
2023/12/12 00:14:15;;;;;;;1.10;1.00;;;5.80;54.00;;;;;;4940391;29;20411;-83
2023/12/12 00:16:41;;;;;;;2.08;1.10;;;5.80;54.00;;;;;;4931760;29;20035;-82
2023/12/12 00:19:08;;;;;;;2.78;1.27;;;5.80;54.20;;;;;;4939996;29;20038;-82
2023/12/12 00:21:34;;;;;;;1.27;1.10;;;5.80;54.00;;;;;;4955868;28;20043;-83
2023/12/12 00:24:00;;;;;;;1.60;1.05;;;5.80;54.00;;;;;;4932784;29;20560;-82
2023/12/12 00:26:27;;;;;;;2.33;0.90;;;5.80;54.10;;;;;;4915492;29;20031;-84
2023/12/12 00:28:53;;;;;;;1.25;0.85;;;5.80;54.00;;;;;;4932551;29;20035;-83
2023/12/12 00:31:19;;;;;;;4.55;1.25;;;5.80;53.60;;;;;;4962408;28;20046;-82
2023/12/12 00:33:45;;;;;;;1.30;1.10;;;5.80;53.60;;;;;;4948550;28;20506;-83
2023/12/12 00:36:11;;;;;;;1.05;0.80;;;5.80;54.00;;;;;;4948704;28;20043;-82
2023/12/12 00:38:37;;;;;;;1.55;1.10;;;5.80;53.70;;;;;;4933046;29;20035;-82
2023/12/12 00:41:04;;;;;;;1.02;0.80;;;5.80;54.00;;;;;;4962955;28;20399;-83
2023/12/12 00:43:30;;;;;;;3.70;1.20;;;5.80;53.80;;;;;;4931388;29;20040;-83
2023/12/12 00:45:56;;;;;;;1.60;0.98;;;5.80;53.70;;;;;;4947661;28;20039;-82
2023/12/12 00:48:22;;;;;;;1.80;0.73;;;5.80;53.30;;;;;;4932222;28;20191;-84
2023/12/12 00:50:48;;;;;;;1.20;0.90;;;5.80;53.50;;;;;;4936319;29;20126;-84
2023/12/12 00:53:14;;;;;;;1.85;1.13;;;5.80;53.80;;;;;;4940322;29;20051;-84
2023/12/12 00:55:41;;;;;;;3.45;0.95;;;5.80;53.60;;;;;;4948628;28;20132;-84
2023/12/12 00:58:07;;;;;;;1.67;1.17;;;5.70;53.30;;;;;;4931765;29;20031;-85
2023/12/12 01:00:33;;;;;;;1.75;1.17;;;5.70;53.60;;;;;;4940330;29;20039;-83
2023/12/12 01:02:59;;;;;;;2.50;1.20;;;5.70;53.50;;;;;;4924170;29;20043;-83
2023/12/12 01:05:26;;;;;;;2.80;1.15;;;5.70;53.30;;;;;;4946382;29;20047;-82
2023/12/12 01:07:52;;;;;;;2.50;0.95;;;5.70;53.50;;;;;;4942818;29;20110;-83
2023/12/12 01:10:18;;;;;;;1.95;1.25;;;5.70;53.70;;;;;;4947665;28;20050;-85
2023/12/12 01:12:44;;;;;;;1.75;1.25;;;5.70;53.40;;;;;;4915353;29;20043;-83
2023/12/12 01:15:10;;;;;;;2.35;1.08;;;5.80;53.30;;;;;;4930719;28;20039;-84
2023/12/12 01:17:36;;;;;;;1.35;0.90;;;5.80;53.80;;;;;;4931876;29;20037;-82
2023/12/12 01:20:02;;;;;;;2.85;1.40;;;5.80;53.40;;;;;;4930791;29;20491;-79
2023/12/12 01:22:28;;;;;;;2.30;0.90;;;5.80;53.70;;;;;;4949067;28;20032;-81
2023/12/12 01:24:55;;;;;;;2.20;1.17;;;5.80;53.40;;;;;;4955765;28;20042;-82
2023/12/12 01:27:21;;;;;;;2.05;1.15;;;5.80;53.40;;;;;;4927644;28;20378;-79
2023/12/12 01:29:46;;;;;;;2.22;1.10;;;5.80;53.30;;;;;;4933551;29;20031;-82
2023/12/12 01:32:13;;;;;;;1.98;0.90;;;5.80;53.30;;;;;;4947082;29;20039;-82
2023/12/12 01:34:39;;;;;;;1.27;0.95;;;5.80;53.10;;;;;;4947408;29;21017;-81
2023/12/12 01:37:05;;;;;;;1.60;1.10;;;5.70;53.00;;;;;;4930917;29;20038;-81
2023/12/12 01:39:31;;;;;;;1.70;0.98;;;5.80;53.00;;;;;;4947114;28;20035;-83
2023/12/12 01:41:57;;;;;;;1.10;0.95;;;5.70;53.10;;;;;;4934009;29;20031;-83
2023/12/12 01:44:23;;;;;;;2.85;1.10;;;5.70;53.30;;;;;;4930760;29;20031;-84
2023/12/12 01:46:51;;;;;;;2.25;1.23;;;5.70;54.10;;;;;;4920906;29;20043;-84
2023/12/12 01:49:17;;;;;;;1.55;1.02;;;5.70;53.30;;;;;;4946180;29;20507;-85
2023/12/12 01:51:47;;;;;;;1.65;0.90;;;5.70;53.40;;;;;;4926180;29;20079;-83
2023/12/12 01:54:16;;;;;;;1.13;0.85;;;5.80;53.30;;;;;;4915194;28;20101;-85
2023/12/12 01:56:44;;;;;;;2.33;1.10;;;5.80;52.90;;;;;;4955190;28;21077;-82
2023/12/12 01:59:10;;;;;;;1.13;0.90;;;5.80;53.10;;;;;;4926162;29;20387;-84
2023/12/12 02:01:37;;;;;;;1.20;0.73;;;5.80;52.80;;;;;;4946845;28;20507;-84
2023/12/12 02:04:04;;;;;;;2.80;1.00;;;5.80;52.80;;;;;;4941135;29;20446;-84
2023/12/12 02:06:30;;;;;;;1.80;0.82;;;5.80;53.00;;;;;;4947772;28;20071;-83
2023/12/12 02:08:57;;;;;;;2.22;1.08;;;5.80;52.90;;;;;;4953624;28;20059;-83
2023/12/12 02:11:23;;;;;;;1.60;0.77;;;5.80;52.90;;;;;;4937837;28;20035;-82
2023/12/12 02:13:49;;;;;;;2.97;0.95;;;5.80;52.80;;;;;;4942722;29;20031;-82
2023/12/12 02:16:16;;;;;;;2.17;0.95;;;5.80;52.90;;;;;;4950915;28;20130;-82
2023/12/12 02:18:43;;;;;;;1.73;0.98;;;5.80;53.10;;;;;;4913729;29;20533;-82
2023/12/12 02:21:09;;;;;;;2.33;0.80;;;5.80;52.70;;;;;;4967072;28;20414;-83
2023/12/12 02:23:35;;;;;;;3.65;1.00;;;5.80;53.10;;;;;;4966738;28;20039;-81
2023/12/12 02:26:02;;;;;;;2.53;0.73;;;5.80;52.70;;;;;;4946676;29;20042;-82
2023/12/12 02:28:28;;;;;;;1.23;1.02;;;5.80;53.00;;;;;;4947492;29;20498;-83
2023/12/12 02:31:00;;;;;;;2.13;1.00;;;5.80;53.10;;;;;;4947175;29;20043;-82
2023/12/12 02:33:26;;;;;;;1.75;0.90;;;5.80;53.30;;;;;;4959971;28;20050;-82
2023/12/12 02:35:52;;;;;;;2.17;0.77;;;5.80;53.10;;;;;;4950236;29;20494;-84
2023/12/12 02:38:18;;;;;;;1.38;0.90;;;5.80;53.00;;;;;;4949494;29;20576;-83
2023/12/12 02:40:44;;;;;;;2.13;1.27;;;5.80;53.60;;;;;;4949675;29;20038;-81
2023/12/12 02:43:10;;;;;;;0.68;0.68;;;5.80;53.30;;;;;;4949914;29;20058;-82
2023/12/12 02:45:36;;;;;;;1.75;0.70;;;5.80;53.10;;;;;;4949676;29;20066;-81
2023/12/12 02:48:02;;;;;;;1.88;0.80;;;5.80;52.90;;;;;;4950278;29;20067;-81
2023/12/12 02:50:28;;;;;;;1.35;1.10;;;5.80;52.70;;;;;;4934431;29;20046;-81
2023/12/12 02:52:54;;;;;;;1.30;0.82;;;5.80;53.30;;;;;;4949861;28;20039;-81
2023/12/12 02:55:20;;;;;;;1.92;0.60;;;5.90;53.10;;;;;;4949179;29;20114;-82
2023/12/12 02:57:46;;;;;;;1.48;1.00;;;5.90;53.40;;;;;;4933829;29;20043;-81
2023/12/12 03:00:13;;;;;;;1.65;1.13;;;5.90;53.50;;;;;;4958011;28;20587;-82
2023/12/12 03:02:39;;;;;;;1.42;0.93;;;5.80;53.30;;;;;;4934348;29;20028;-83
2023/12/12 03:05:05;;;;;;;1.67;1.10;;;5.90;53.30;;;;;;4949591;28;20130;-82
2023/12/12 03:07:31;;;;;;;2.15;1.17;;;5.80;53.50;;;;;;4948869;29;20063;-81
2023/12/12 03:09:57;;;;;;;2.30;1.10;;;5.80;53.40;;;;;;4948737;29;20032;-80
2023/12/12 03:12:23;;;;;;;2.05;0.90;;;5.80;53.30;;;;;;4950419;28;20398;-81
2023/12/12 03:14:50;;;;;;;1.25;0.95;;;5.90;53.10;;;;;;4950751;29;20031;-81
2023/12/12 03:17:16;;;;;;;1.23;0.80;;;5.90;53.40;;;;;;4950499;28;20123;-81
2023/12/12 03:19:42;;;;;;;1.60;0.95;;;5.90;53.80;;;;;;4945775;29;20412;-81
2023/12/12 03:22:08;;;;;;;2.17;0.85;;;5.80;53.40;;;;;;4945035;29;20055;-82
2023/12/12 03:24:34;;;;;;;2.67;0.77;;;5.90;53.40;;;;;;4964844;28;20042;-82
2023/12/12 03:27:00;;;;;;;1.13;0.80;;;5.80;53.40;;;;;;4934329;29;20031;-82
2023/12/12 03:29:26;;;;;;;1.42;1.05;;;5.80;53.60;;;;;;4934027;29;20067;-83
2023/12/12 03:31:52;;;;;;;2.17;0.93;;;5.90;53.50;;;;;;4940455;29;20517;-82
2023/12/12 03:34:18;;;;;;;2.22;1.15;;;5.90;53.50;;;;;;4933425;29;20173;-82
2023/12/12 03:36:45;;;;;;;1.88;0.88;;;5.90;53.70;;;;;;4949424;29;20491;-80
2023/12/12 03:39:11;;;;;;;1.67;0.90;;;6.00;53.60;;;;;;4933547;28;20505;-82
2023/12/12 03:41:38;;;;;;;1.35;1.15;;;6.00;53.60;;;;;;4933998;29;20038;-83
2023/12/12 03:44:04;;;;;;;2.28;0.98;;;5.90;53.50;;;;;;4940580;29;20094;-83
2023/12/12 03:46:30;;;;;;;1.75;0.90;;;6.00;53.50;;;;;;4940023;29;20048;-82
2023/12/12 03:48:56;;;;;;;3.28;1.20;;;6.00;53.20;;;;;;4950957;28;20031;-81
2023/12/12 03:51:23;;;;;;;2.30;1.40;;;6.00;53.30;;;;;;4933379;28;20035;-82
2023/12/12 03:53:49;;;;;;;2.22;0.93;;;5.90;53.30;;;;;;4941336;29;20038;-81
2023/12/12 03:56:15;;;;;;;1.77;0.98;;;5.90;53.30;;;;;;4944529;29;20039;-82
2023/12/12 03:58:41;;;;;;;1.33;1.00;;;5.90;52.80;;;;;;4926854;29;20043;-83
2023/12/12 04:01:07;;;;;;;2.15;1.00;;;5.90;53.10;;;;;;4949247;28;20041;-82
2023/12/12 04:03:33;;;;;;;1.65;1.00;;;5.90;53.00;;;;;;4931965;29;20043;-82
2023/12/12 04:06:06;;;;;;;3.58;1.00;;;5.90;53.10;;;;;;4932865;29;20039;-82
2023/12/12 04:08:32;;;;;;;2.03;1.13;;;5.90;52.90;;;;;;4948443;29;20106;-82
2023/12/12 04:10:58;;;;;;;5.57;1.38;;;5.90;53.10;;;;;;4939448;29;20250;-81
2023/12/12 04:13:24;;;;;;;1.92;1.00;;;6.00;53.00;;;;;;4948613;28;20569;-82
2023/12/12 04:15:50;;;;;;;2.08;1.35;;;6.00;53.10;;;;;;4948792;29;20043;-80
2023/12/12 04:18:16;;;;;;;2.85;1.00;;;6.00;53.20;;;;;;4939649;28;20039;-83
2023/12/12 04:20:42;;;;;;;1.77;0.95;;;6.00;53.10;;;;;;4947164;29;20794;-80
2023/12/12 04:23:08;;;;;;;1.70;0.90;;;6.00;52.80;;;;;;4948977;28;20069;-79
2023/12/12 04:25:34;;;;;;;1.95;1.20;;;6.00;53.10;;;;;;4948989;28;20514;-82
2023/12/12 04:28:00;;;;;;;1.55;0.95;;;6.00;53.00;;;;;;4942529;28;20039;-82
2023/12/12 04:30:26;;;;;;;2.20;1.27;;;6.00;53.00;;;;;;4930083;28;20034;-82
2023/12/12 04:32:52;;;;;;;1.67;1.17;;;6.00;53.20;;;;;;4923342;28;20054;-81
2023/12/12 04:35:19;;;;;;;1.63;1.10;;;6.00;53.00;;;;;;4949017;28;20161;-81
2023/12/12 04:37:46;;;;;;;2.05;1.20;;;6.00;52.80;;;;;;4943099;28;20047;-83
2023/12/12 04:40:12;;;;;;;2.20;1.05;;;6.00;52.90;;;;;;4947693;29;20038;-80
2023/12/12 04:42:38;;;;;;;2.22;1.30;;;6.00;52.80;;;;;;4948548;28;20141;-78
2023/12/12 04:45:05;;;;;;;1.38;1.08;;;6.00;52.70;;;;;;4948640;29;20050;-80
2023/12/12 04:47:31;;;;;;;2.38;1.33;;;6.00;53.10;;;;;;4948100;28;20034;-77
2023/12/12 04:49:57;;;;;;;2.15;1.48;;;6.00;53.10;;;;;;4948462;28;20418;-78
2023/12/12 04:52:23;;;;;;;2.53;1.42;;;6.00;53.00;;;;;;4942117;29;20051;-77
2023/12/12 04:54:49;;;;;;;1.52;1.13;;;6.00;53.30;;;;;;4947702;28;20035;-76
2023/12/12 04:57:15;;;;;;;3.25;1.40;;;6.00;53.30;;;;;;4948278;28;20031;-78
2023/12/12 04:59:42;;;;;;;2.83;1.40;;;6.00;53.30;;;;;;4962734;28;20644;-79
2023/12/12 05:02:08;;;;;;;1.85;1.17;;;6.00;53.30;;;;;;4947466;28;20521;-78
2023/12/12 05:04:35;;;;;;;2.30;1.10;;;6.00;53.30;;;;;;4948315;28;20047;-80
2023/12/12 05:07:01;;;;;;;1.92;1.20;;;6.10;53.00;;;;;;4947546;28;20373;-79
2023/12/12 05:09:27;;;;;;;2.40;1.35;;;6.00;53.30;;;;;;4947177;28;20816;-78
2023/12/12 05:11:53;;;;;;;1.92;1.40;;;6.10;54.00;;;;;;4947371;29;20126;-78
2023/12/12 05:14:19;;;;;;;2.92;1.63;;;6.10;56.50;;;;;;4947435;28;20031;-78
2023/12/12 05:16:45;;;;;;;3.00;1.38;;;6.10;57.00;;;;;;4946798;28;20043;-78
2023/12/12 05:19:11;;;;;;;2.83;1.52;;;6.10;57.60;;;;;;4946259;29;20119;-79
2023/12/12 05:21:37;;;;;;;2.20;1.60;;;6.10;57.80;;;;;;4947196;28;20035;-78
2023/12/12 05:24:04;;;;;;;3.85;1.65;;;6.20;57.90;;;;;;4953847;28;20031;-80
2023/12/12 05:26:30;;;;;;;3.50;1.60;;;6.20;58.10;;;;;;4947049;29;20383;-80
2023/12/12 05:28:56;;;;;;;3.65;2.03;;;6.20;58.30;;;;;;4948590;28;20043;-79
2023/12/12 05:31:24;;;;;;;3.45;1.85;;;6.20;58.40;;;;;;4926234;29;20049;-78
2023/12/12 05:33:50;;;;;;;4.30;1.77;;;6.20;58.40;;;;;;4946743;28;20050;-79
2023/12/12 05:36:16;;;;;;;5.05;1.70;;;6.20;58.60;;;;;;4947233;28;20031;-78
2023/12/12 05:38:42;;;;;;;2.47;1.48;;;6.20;58.40;;;;;;4947213;29;20046;-78
2023/12/12 05:41:08;;;;;;;3.55;1.58;;;6.20;58.50;;;;;;4947596;28;20506;-77
2023/12/12 05:43:34;;;;;;;2.17;1.70;;;6.20;59.20;;;;;;4947857;28;20043;-80
2023/12/12 05:46:00;;;;;;;3.58;1.92;;;6.20;58.80;;;;;;4946783;28;20035;-77
2023/12/12 05:48:26;;;;;;;3.88;1.70;;;6.30;58.90;;;;;;4947153;28;20459;-78
2023/12/12 05:50:53;;;;;;;2.55;1.70;;;6.30;58.70;;;;;;4953304;28;20061;-90
2023/12/12 05:53:19;;;;;;;2.92;1.58;;;6.40;58.80;;;;;;4952439;28;20043;-85
2023/12/12 05:55:45;;;;;;;1.85;1.50;;;6.40;59.00;;;;;;4932062;29;20036;-89
2023/12/12 05:58:11;;;;;;;2.35;1.55;;;6.40;59.50;;;;;;4927571;29;20095;-91
2023/12/12 06:00:39;;;;;;;3.83;1.80;;;6.40;58.90;;;;;;4923390;29;20059;-89
2023/12/12 06:03:06;;;;;;;2.72;1.50;;;6.40;58.90;;;;;;5025183;23;20059;-92
2023/12/12 06:05:32;;;;;;;4.22;1.48;;;6.50;59.20;;;;;;4931595;29;20981;-86
2023/12/12 06:07:58;;;;;;;3.25;1.60;;;6.50;58.90;;;;;;4932769;29;20047;-86
2023/12/12 06:10:24;;;;;;;3.22;1.83;;;6.50;59.20;;;;;;4959105;28;20590;-87
2023/12/12 06:12:50;;;;;;;2.80;1.77;;;6.50;59.00;;;;;;4950286;28;20094;-90
2023/12/12 06:15:16;;;;;;;2.33;1.65;;;6.50;59.40;;;;;;4944466;28;20035;-84
2023/12/12 06:17:42;;;;;;;2.42;1.77;;;6.60;58.90;;;;;;4949642;29;20038;-91
2023/12/12 06:20:08;;;;;;;2.17;1.48;;;6.60;59.20;;;;;;4947405;29;20040;-88
2023/12/12 06:22:35;;;;;;;1.30;1.20;;;6.50;58.90;;;;;;4954134;29;20039;-83
2023/12/12 06:25:01;;;;;;;3.22;1.50;;;6.60;59.30;;;;;;4967830;28;20119;-84
2023/12/12 06:27:28;;;;;;;1.73;1.60;;;6.60;59.20;;;;;;5034293;23;20401;-78
2023/12/12 06:29:54;;;;;;;2.65;1.58;;;6.60;58.90;;;;;;5189268;23;20055;-91
2023/12/12 06:32:22;;;;;;;2.00;1.20;;;6.70;59.10;;;;;;4943594;28;20509;-90
2023/12/12 06:34:48;;;;;;;1.92;1.42;;;6.70;59.40;;;;;;4941706;28;20035;-85
2023/12/12 06:37:14;;;;;;;1.85;1.20;;;6.70;58.90;;;;;;4942002;28;20042;-88
2023/12/12 06:39:41;;;;;;;3.35;1.75;;;6.70;58.90;;;;;;4941033;28;20118;-86
2023/12/12 06:42:07;;;;;;;2.00;1.40;;;6.70;58.70;;;;;;4945299;29;20040;-91
2023/12/12 06:44:33;;;;;;;2.10;1.50;;;6.70;58.90;;;;;;4942980;28;20062;-91
2023/12/12 06:46:59;;;;;;;3.92;1.90;;;6.80;58.90;;;;;;4942592;28;21040;-86
2023/12/12 06:49:25;;;;;;;4.68;2.20;;;6.70;58.80;;;;;;4945794;28;20090;-91
2023/12/12 06:51:51;;;;;;;3.70;1.27;;;6.80;59.10;;;;;;4943574;28;20186;-93
2023/12/12 06:54:17;;;;;;;2.03;1.73;;;6.80;58.60;;;;;;4945998;28;20550;-87
2023/12/12 06:56:43;;;;;;;3.17;1.35;;;6.80;58.80;;;;;;4942206;28;20035;-86
2023/12/12 06:59:09;;;;;;;3.08;1.98;;;6.80;59.20;;;;;;4948838;28;20047;-90
2023/12/12 07:01:35;;;;;;;2.42;1.52;;;6.80;58.80;;;;;;4954474;28;20053;-82
2023/12/12 07:04:01;;;;;;;4.72;1.65;;;6.80;58.80;;;;;;4944040;28;20680;-87
2023/12/12 07:06:27;;;;;;;1.75;1.40;;;6.80;59.00;;;;;;4944927;28;20575;-84
2023/12/12 07:08:53;;;;;;;3.47;1.30;;;6.80;58.70;;;;;;4945367;29;20031;-85
2023/12/12 07:11:19;;;;;;;3.47;1.50;;;6.90;59.10;;;;;;4947506;28;20055;-90
2023/12/12 07:13:45;;;;;;;2.72;1.95;;;6.90;59.20;;;;;;4949548;28;20035;-83
2023/12/12 07:16:12;;;;;;;3.13;1.40;;;6.90;59.20;;;;;;4941335;28;20031;-83
2023/12/12 07:18:39;;;;;;;2.00;1.50;;;6.90;59.30;;;;;;4942697;28;20076;-82
2023/12/12 07:21:05;;;;;;;3.97;1.52;;;6.90;59.00;;;;;;4927247;29;20032;-82
2023/12/12 07:23:32;;;;;;;1.33;1.23;;;6.90;58.70;;;;;;4940013;28;20067;-81
2023/12/12 07:25:59;;;;;;;3.55;1.52;;;6.90;59.20;;;;;;4939852;28;20051;-82
2023/12/12 07:28:25;;;;;;;3.42;1.58;;;6.90;59.00;;;;;;4943237;28;20046;-83
2023/12/12 07:30:53;;;;;;;2.65;1.60;;;6.90;59.00;;;;;;4943638;28;20545;-82
2023/12/12 07:33:19;;;;;;;1.95;1.38;;;6.90;59.20;;;;;;4942269;28;20075;-85
2023/12/12 07:35:46;;;;;;;3.17;1.55;;;6.90;58.90;;;;;;4943158;29;20039;-82
2023/12/12 07:38:12;;;;;;;3.17;1.33;;;6.90;58.70;;;;;;4944796;28;20035;-82
2023/12/12 07:40:38;;;;;;;3.17;1.98;;;6.90;59.00;;;;;;4946548;28;20058;-80
2023/12/12 07:43:04;;;;;;;2.65;1.27;;;6.90;58.70;;;;;;4936913;29;20503;-82
2023/12/12 07:45:30;;;;;;;7.20;1.70;;;6.90;59.00;;;;;;4937504;28;20046;-84
2023/12/12 07:47:56;;;;;;;2.97;1.33;;;7.00;58.70;;;;;;4945967;29;20831;-82
2023/12/12 07:50:22;;;;;;;3.03;1.20;;;6.90;58.60;;;;;;4946275;28;20083;-85
2023/12/12 07:52:49;;;;;;;2.08;1.48;;;6.90;58.60;;;;;;4924543;29;20046;-83
2023/12/12 07:55:15;;;;;;;2.70;1.77;;;6.90;58.40;;;;;;4948529;28;20849;-87
2023/12/12 07:57:41;;;;;;;3.47;2.03;;;6.90;58.50;;;;;;4941249;28;20055;-85
2023/12/12 08:00:10;;;;;;;1.67;1.42;;;7.00;58.70;;;;;;4943459;28;20027;-85
2023/12/12 08:02:38;;;;;;;2.88;1.52;;;7.00;58.60;;;;;;4943351;29;20047;-85
2023/12/12 08:05:06;;;;;;;4.53;1.60;;;7.00;58.70;;;;;;4957485;28;20118;-83
2023/12/12 08:07:32;;;;;;;2.97;1.55;;;7.00;58.40;;;;;;4941776;28;20035;-83
2023/12/12 08:09:58;;;;;;;3.05;1.80;;;7.00;58.60;;;;;;4936315;28;20181;-83
2023/12/12 08:12:24;;;;;;;4.22;1.55;;;7.00;58.50;;;;;;4941415;28;20039;-83
2023/12/12 08:14:52;;;;;;;2.20;1.40;;;7.00;58.70;;;;;;4941271;28;20039;-81
2023/12/12 08:17:18;;;;;;;3.60;1.77;;;7.00;58.40;;;;;;4955715;28;20032;-84
2023/12/12 08:19:45;;;;;;;3.35;1.63;;;6.90;58.50;;;;;;4938765;28;20407;-83
2023/12/12 08:22:12;;;;;;;2.70;1.50;;;7.00;58.60;;;;;;4941642;28;20035;-87
2023/12/12 08:24:39;;;;;;;3.33;1.48;;;7.00;58.90;;;;;;4943489;28;20051;-85
2023/12/12 08:27:07;;;;;;;4.70;1.85;;;7.00;58.60;;;;;;4962437;28;20034;-84
2023/12/12 08:29:33;;;;;;;4.63;2.10;;;7.00;58.60;;;;;;4962436;28;20075;-83
2023/12/12 08:31:59;;;;;;;2.35;1.40;;;7.00;58.70;;;;;;4953009;28;20047;-84
2023/12/12 08:34:25;;;;;;;2.53;1.40;;;7.00;58.70;;;;;;4963754;28;20027;-91
2023/12/12 08:36:51;;;;;;;3.03;1.80;;;7.00;58.70;;;;;;4946543;28;20716;-86
2023/12/12 08:39:17;;;;;;;2.70;1.55;;;7.00;58.40;;;;;;4914318;28;20031;-86
2023/12/12 08:41:44;;;;;;;3.83;1.65;;;7.00;58.20;;;;;;4945654;29;20027;-85
2023/12/12 08:44:10;;;;;;;2.83;1.63;;;7.00;58.40;;;;;;4912054;29;20130;-86
2023/12/12 08:46:36;;;;;;;1.85;1.30;;;7.00;58.60;;;;;;4947990;28;20035;-86
2023/12/12 08:49:03;;;;;;;1.73;1.25;;;7.00;58.30;;;;;;4931799;29;20079;-83
2023/12/12 08:51:30;;;;;;;2.42;1.30;;;7.00;58.20;;;;;;4946852;28;20050;-86
2023/12/12 08:53:58;;;;;;;4.97;1.70;;;7.00;58.40;;;;;;4944516;28;20034;-85
2023/12/12 08:56:25;;;;;;;3.47;1.35;;;7.00;58.20;;;;;;4923815;29;20032;-87
2023/12/12 08:58:51;;;;;;;2.50;1.40;;;7.00;58.30;;;;;;4945988;28;20035;-88
2023/12/12 09:01:18;;;;;;;1.70;1.15;;;7.00;58.30;;;;;;4912247;29;20729;-91
2023/12/12 09:03:44;;;;;;;5.18;1.50;;;7.00;58.30;;;;;;4945325;28;20426;-90
2023/12/12 09:06:10;;;;;;;2.13;1.38;;;7.00;58.90;;;;;;4946022;28;20501;-88
2023/12/12 09:08:39;;;;;;;2.25;1.35;;;7.00;58.20;;;;;;4950225;29;20162;-82
2023/12/12 09:11:06;;;;;;;2.38;1.48;;;7.00;58.10;;;;;;4955121;28;20043;-85
2023/12/12 09:13:32;;;;;;;2.28;1.25;;;7.00;58.50;;;;;;4947712;28;20037;-85
2023/12/12 09:15:58;;;;;;;1.90;1.40;;;7.00;58.30;;;;;;4929860;29;20036;-83
2023/12/12 09:18:24;;;;;;;3.13;1.30;;;7.00;58.20;;;;;;4930790;28;20085;-85
2023/12/12 09:20:53;;;;;;;3.95;1.48;;;7.00;58.10;;;;;;4926271;29;20031;-85
2023/12/12 09:23:20;;;;;;;2.85;1.60;;;7.00;58.00;;;;;;4910834;29;20490;-84
2023/12/12 09:25:46;;;;;;;3.10;1.80;;;7.00;58.20;;;;;;4944019;28;20040;-85
2023/12/12 09:28:12;;;;;;;3.15;1.42;;;7.00;58.40;;;;;;4942854;28;20043;-84
2023/12/12 09:30:39;;;;;;;2.17;1.20;;;7.00;58.20;;;;;;4927189;29;20066;-85
2023/12/12 09:33:06;;;;;;;2.35;1.20;;;7.00;58.40;;;;;;4931947;29;20589;-88
2023/12/12 09:35:36;;;;;;;2.10;1.58;;;7.00;58.30;;;;;;4931191;29;20050;-87
2023/12/12 09:38:02;;;;;;;2.33;1.15;;;7.00;58.00;;;;;;4935257;28;20039;-87
2023/12/12 09:40:28;;;;;;;2.13;1.15;;;7.00;58.10;;;;;;4944688;28;20642;-84
2023/12/12 09:42:56;;;;;;;4.13;1.38;;;7.00;58.20;;;;;;4936223;28;20127;-84
2023/12/12 09:45:23;;;;;;;1.75;1.15;;;7.00;58.40;;;;;;4943960;28;20031;-85
2023/12/12 09:47:54;;;;;;;3.38;1.67;;;7.00;58.10;;;;;;4945709;29;20063;-84
2023/12/12 09:50:20;;;;;;;3.03;1.20;;;7.00;57.80;;;;;;4941935;28;20042;-85
2023/12/12 09:52:47;;;;;;;3.20;1.38;;;7.00;57.90;;;;;;4959375;28;20047;-84
2023/12/12 09:55:16;;;;;;;1.15;1.02;;;7.00;57.90;;;;;;4946822;28;20089;-84
2023/12/12 09:57:43;;;;;;;2.83;1.00;;;7.00;58.00;;;;;;4930687;29;20055;-84
2023/12/12 10:00:10;;;;;;;1.65;1.20;;;7.00;58.10;;;;;;4929040;29;20126;-86
2023/12/12 10:02:37;;;;;;;4.22;1.23;;;7.00;58.00;;;;;;4914137;29;20186;-82
2023/12/12 10:05:05;;;;;;;2.90;1.63;;;7.00;58.30;;;;;;4929418;29;20046;-85
2023/12/12 10:07:33;;;;;;;3.03;1.27;;;7.00;57.90;;;;;;4929913;29;20134;-84
2023/12/12 10:10:00;;;;;;;2.72;1.63;;;7.00;58.00;;;;;;4942363;28;20036;-83
2023/12/12 10:12:26;;;;;;;5.47;1.50;;;7.00;57.80;;;;;;4927262;28;20039;-84
2023/12/12 10:14:52;;;;;;;2.65;1.50;;;7.00;58.00;;;;;;4947583;28;20094;-84
2023/12/12 10:17:23;;;;;;;2.78;1.25;;;7.00;57.80;;;;;;4945520;28;20396;-83
2023/12/12 10:20:00;;;;;;;1.52;1.30;;;7.00;57.70;;;;;;4929975;29;20114;-85
2023/12/12 10:22:32;;;;;;;1.75;1.15;;;7.00;57.50;;;;;;4945492;28;20043;-86
2023/12/12 10:25:14;;;;;;;2.80;1.48;;;7.00;57.70;;;;;;4945085;28;20039;-85
2023/12/12 10:27:42;;;;;;;3.40;1.17;;;7.00;57.80;;;;;;4929351;29;20127;-83
2023/12/12 10:30:10;;;;;;;3.00;1.02;;;7.00;57.90;;;;;;4931651;29;20047;-85
2023/12/12 10:32:37;;;;;;;3.65;1.30;;;6.90;57.70;;;;;;4962629;28;20542;-85
2023/12/12 10:35:05;;;;;;;1.85;1.25;;;6.90;57.50;;;;;;4946759;28;20039;-84
2023/12/12 10:37:31;;;;;;;1.33;1.20;;;7.00;57.60;;;;;;4948044;28;20031;-84
2023/12/12 10:40:19;;;;;;;1.17;1.00;;;7.00;57.70;;;;;;4946149;28;20794;-83
2023/12/12 10:42:45;;;;;;;2.53;1.10;;;6.90;58.00;;;;;;4932062;29;20506;-85
2023/12/12 10:45:13;;;;;;;1.75;1.30;;;6.90;58.00;;;;;;4915977;28;20037;-84
2023/12/12 10:47:43;;;;;;;3.67;1.42;;;6.90;58.00;;;;;;4949244;29;20035;-87
2023/12/12 10:50:13;;;;;;;2.28;0.90;;;6.90;58.10;;;;;;4964174;28;20044;-85
2023/12/12 10:52:39;;;;;;;3.28;1.40;;;6.90;57.90;;;;;;4961325;28;20110;-83
2023/12/12 10:55:08;;;;;;;2.92;1.17;;;6.90;57.90;;;;;;4946051;29;20046;-84
2023/12/12 10:57:37;;;;;;;3.25;1.48;;;6.90;57.80;;;;;;4959234;28;20051;-86
2023/12/12 11:00:11;;;;;;;1.92;1.25;;;6.90;57.80;;;;;;4946311;28;20062;-85
2023/12/12 11:02:44;;;;;;;2.85;1.08;;;6.90;58.00;;;;;;4928978;29;20156;-81
2023/12/12 11:05:13;;;;;;;4.43;1.60;;;6.90;57.80;;;;;;4925543;29;20130;-85
2023/12/12 11:07:41;;;;;;;5.13;1.40;;;6.90;57.70;;;;;;4932383;29;20032;-85
2023/12/12 11:10:14;;;;;;;3.42;1.02;;;6.90;57.60;;;;;;4946082;28;20059;-84
2023/12/12 11:12:48;;;;;;;3.53;1.30;;;6.90;57.70;;;;;;4944193;28;20046;-85
2023/12/12 11:15:15;;;;;;;3.03;1.80;;;6.90;57.80;;;;;;4914759;28;20034;-84
2023/12/12 11:17:42;;;;;;;3.28;1.48;;;6.90;57.80;;;;;;4917934;29;20031;-86
2023/12/12 11:20:15;;;;;;;1.42;1.08;;;6.80;57.70;;;;;;4944745;28;20043;-84
2023/12/12 11:22:43;;;;;;;2.95;1.30;;;6.80;57.60;;;;;;4944975;28;20067;-83
2023/12/12 11:25:28;;;;;;;2.40;1.45;;;6.80;57.70;;;;;;4946698;28;21210;-84
2023/12/12 11:27:58;;;;;;;4.05;1.77;;;6.80;57.40;;;;;;4934145;29;20106;-84
2023/12/12 11:30:48;;;;;;;2.28;1.42;;;6.80;57.50;;;;;;4926887;28;20074;-82
2023/12/12 11:33:16;;;;;;;4.38;1.20;;;6.80;57.60;;;;;;4946643;28;20046;-84
2023/12/12 11:35:42;;;;;;;2.25;1.20;;;6.80;57.70;;;;;;4945619;29;20031;-83
2023/12/12 11:38:31;;;;;;;3.75;1.63;;;6.80;57.40;;;;;;4933131;29;20075;-83
2023/12/12 11:41:25;;;;;;;2.83;1.52;;;6.80;57.40;;;;;;4946187;28;20051;-78
2023/12/12 11:43:51;;;;;;;2.13;1.42;;;6.70;57.20;;;;;;4946966;28;20043;-87
2023/12/12 11:46:21;;;;;;;4.03;1.55;;;6.70;57.50;;;;;;4945780;28;20063;-86
2023/12/12 11:48:47;;;;;;;3.95;1.42;;;6.80;57.80;;;;;;4931195;29;20035;-88
2023/12/12 11:51:35;;;;;;;4.00;1.77;;;6.70;57.80;;;;;;4944469;28;20023;-88
2023/12/12 11:54:08;;;;;;;3.75;1.30;;;6.70;58.10;;;;;;4930849;29;20050;-86
2023/12/12 11:56:34;;;;;;;4.97;1.50;;;6.70;58.10;;;;;;4944539;28;20043;-84
2023/12/12 11:59:05;;;;;;;3.33;1.50;;;6.70;58.20;;;;;;4942636;28;20039;-79
2023/12/12 12:01:31;;;;;;;5.85;1.70;;;6.70;58.30;;;;;;4944342;28;20036;-88
2023/12/12 12:03:57;;;;;;;3.65;1.20;;;6.70;58.40;;;;;;4947162;28;20039;-83
2023/12/12 12:06:24;;;;;;;5.22;1.42;;;6.70;58.40;;;;;;4948499;28;20085;-87
2023/12/12 12:08:50;;;;;;;5.20;1.33;;;6.70;58.40;;;;;;4945331;29;20050;-83
2023/12/12 12:11:16;;;;;;;3.13;1.05;;;6.70;58.50;;;;;;4942142;28;20081;-80
2023/12/12 12:13:43;;;;;;;4.07;1.50;;;6.60;58.60;;;;;;4928938;29;20482;-89
2023/12/12 12:16:10;;;;;;;5.38;1.60;;;6.60;58.80;;;;;;4943858;28;20039;-90
2023/12/12 12:18:39;;;;;;;2.35;1.42;;;6.60;58.50;;;;;;4930058;29;20039;-93
2023/12/12 12:21:09;;;;;;;3.85;1.45;;;6.60;58.50;;;;;;4945085;29;20032;-87
2023/12/12 12:23:38;;;;;;;3.17;1.17;;;6.60;58.30;;;;;;4945221;29;20036;-84
2023/12/12 12:26:07;;;;;;;2.10;1.52;;;6.60;58.30;;;;;;4961047;28;20031;-86
2023/12/12 12:28:34;;;;;;;3.88;1.45;;;6.60;58.60;;;;;;4947893;28;20406;-83
2023/12/12 12:31:01;;;;;;;4.55;1.33;;;6.60;58.90;;;;;;4958745;28;20058;-83
2023/12/12 12:33:35;;;;;;;2.67;1.50;;;6.60;58.80;;;;;;4945093;28;20046;-85
2023/12/12 12:36:01;;;;;;;3.63;1.40;;;6.60;58.80;;;;;;4946876;29;20046;-83
2023/12/12 12:38:31;;;;;;;3.40;1.33;;;6.60;58.80;;;;;;4946659;28;20134;-87
2023/12/12 12:40:58;;;;;;;3.60;1.33;;;6.60;58.80;;;;;;4961908;28;20039;-85
2023/12/12 12:43:24;;;;;;;2.58;1.20;;;6.60;59.20;;;;;;4944603;28;20042;-84
2023/12/12 12:45:51;;;;;;;3.63;1.40;;;6.50;59.00;;;;;;4943701;28;20311;-86
2023/12/12 12:48:17;;;;;;;3.05;1.50;;;6.60;58.90;;;;;;4945090;28;20039;-82
2023/12/12 12:50:46;;;;;;;3.10;1.13;;;6.50;58.90;;;;;;4946190;29;20023;-81
2023/12/12 12:53:12;;;;;;;3.15;1.80;;;6.50;58.90;;;;;;4946633;28;20063;-85
2023/12/12 12:55:42;;;;;;;3.90;1.30;;;6.50;58.90;;;;;;4944259;28;20039;-85
2023/12/12 12:58:13;;;;;;;8.75;1.50;;;6.50;59.00;;;;;;4927818;29;20047;-86